PWSweather.com
Personal Weather Stations
Station Observations
ANTHEMNP
Anthem North Parkside, Anthem, AZ 85086

Anthem North ParksideAnthem, AZ 85086

Lat: 33.876464, Lon: -112.13861199999997

Elevation: 1930

Station Type: Davis Vantage Vue with Pro 2 console

http://www.azjerry.com/ANPW/wxindex.php

High Low Average
Temperature 103.7°F39.8°C 73.5°F23.1°C 90.8°F32.7°C
Dew Point 69.0°F20.6°C 56.0°F13.3°C 62.4°F16.9°C
Winds 9.9 mph 15.9 kmh Calm Calm 3.0 mph S4.8 kmh S
Wind Gusts 21.0 mph33.8 kmh -- 7.0 mph11.3 kmh
Humidity 84% 21% 42%
Pressure 29.96 in1014.6 mb 29.74 in1007.1 mb -
Precipitation 0.26 in6.6 mm - -
Hour Temp Dew Point Humidity Winds Wind Gusts Pressure Precip Precip Rate Daily Precip Total
12:00 AM 91.5°F33.1°C 58.0°F14.4°C 32% 1.0 mph SSW1.6 kmh SSW 3.0 mph4.8 kmh 29.84 in1010.5 mb 0.00 in0.0 mm 0.00 in0.0 mm 0.00 in0.0 mm
12:10 AM 91.2°F32.9°C 57.0°F13.9°C 32% 0.4 mph SE0.6 kmh SE 2.0 mph3.2 kmh 29.84 in1010.5 mb 0.00 in0.0 mm 0.00 in0.0 mm 0.00 in0.0 mm
12:20 AM 91.3°F32.9°C 57.0°F13.9°C 31% 1.0 mph SE1.6 kmh SE 4.0 mph6.4 kmh 29.84 in1010.5 mb 0.00 in0.0 mm 0.00 in0.0 mm 0.00 in0.0 mm
12:30 AM 91.2°F32.9°C 57.0°F13.9°C 31% 1.8 mph SE2.9 kmh SE 6.0 mph9.7 kmh 29.84 in1010.5 mb 0.00 in0.0 mm 0.00 in0.0 mm 0.00 in0.0 mm
12:40 AM 90.7°F32.6°C 57.0°F13.9°C 32% 1.2 mph SE1.9 kmh SE 4.0 mph6.4 kmh 29.83 in1010.2 mb 0.00 in0.0 mm 0.00 in0.0 mm 0.00 in0.0 mm
12:50 AM 90.1°F32.3°C 56.0°F13.3°C 32% 1.1 mph ESE1.8 kmh ESE 6.0 mph9.7 kmh 29.84 in1010.5 mb 0.00 in0.0 mm 0.00 in0.0 mm 0.00 in0.0 mm
01:00 AM 89.8°F32.1°C 56.0°F13.3°C 32% 0.7 mph SE1.1 kmh SE 3.0 mph4.8 kmh 29.84 in1010.5 mb 0.00 in0.0 mm 0.00 in0.0 mm 0.00 in0.0 mm
01:10 AM 89.5°F31.9°C 57.0°F13.9°C 33% 0.6 mph SE1.0 kmh SE 3.0 mph4.8 kmh 29.84 in1010.5 mb 0.00 in0.0 mm 0.00 in0.0 mm 0.00 in0.0 mm
01:20 AM 89.4°F31.9°C 57.0°F13.9°C 33% 1.0 mph SSE1.6 kmh SSE 4.0 mph6.4 kmh 29.84 in1010.5 mb 0.00 in0.0 mm 0.00 in0.0 mm 0.00 in0.0 mm
01:30 AM 89.4°F31.9°C 57.0°F13.9°C 33% 1.3 mph SE2.1 kmh SE 3.0 mph4.8 kmh 29.84 in1010.5 mb 0.00 in0.0 mm 0.00 in0.0 mm 0.00 in0.0 mm
01:40 AM 89.2°F31.8°C 57.0°F13.9°C 33% 0.9 mph SSW1.4 kmh SSW 3.0 mph4.8 kmh 29.84 in1010.5 mb 0.00 in0.0 mm 0.00 in0.0 mm 0.00 in0.0 mm
01:50 AM 89.1°F31.7°C 57.0°F13.9°C 34% 1.4 mph SE2.3 kmh SE 4.0 mph6.4 kmh 29.84 in1010.5 mb 0.00 in0.0 mm 0.00 in0.0 mm 0.00 in0.0 mm
02:00 AM 89.0°F31.7°C 58.0°F14.4°C 35% 1.7 mph SSE2.7 kmh SSE 5.0 mph8.0 kmh 29.84 in1010.5 mb 0.00 in0.0 mm 0.00 in0.0 mm 0.00 in0.0 mm
02:10 AM 88.9°F31.6°C 58.0°F14.4°C 35% 1.9 mph SE3.1 kmh SE 5.0 mph8.0 kmh 29.84 in1010.5 mb 0.00 in0.0 mm 0.00 in0.0 mm 0.00 in0.0 mm
02:20 AM 88.7°F31.5°C 58.0°F14.4°C 36% 1.6 mph SE2.6 kmh SE 3.0 mph4.8 kmh 29.84 in1010.5 mb 0.00 in0.0 mm 0.00 in0.0 mm 0.00 in0.0 mm
02:30 AM 88.6°F31.4°C 58.0°F14.4°C 36% 2.0 mph SE3.2 kmh SE 6.0 mph9.7 kmh 29.84 in1010.5 mb 0.00 in0.0 mm 0.00 in0.0 mm 0.00 in0.0 mm
02:40 AM 88.6°F31.4°C 59.0°F15.0°C 37% 2.0 mph SE3.2 kmh SE 5.0 mph8.0 kmh 29.84 in1010.5 mb 0.00 in0.0 mm 0.00 in0.0 mm 0.00 in0.0 mm
02:50 AM 88.7°F31.5°C 60.0°F15.6°C 38% 2.1 mph NNE3.4 kmh NNE 5.0 mph8.0 kmh 29.84 in1010.5 mb 0.00 in0.0 mm 0.00 in0.0 mm 0.00 in0.0 mm
03:00 AM 88.6°F31.4°C 60.0°F15.6°C 38% 3.0 mph SSE4.8 kmh SSE 10.0 mph16.1 kmh 29.85 in1010.8 mb 0.00 in0.0 mm 0.00 in0.0 mm 0.00 in0.0 mm
03:10 AM 87.5°F30.8°C 60.0°F15.6°C 39% 4.4 mph SSE7.1 kmh SSE 13.0 mph20.9 kmh 29.86 in1011.2 mb 0.00 in0.0 mm 0.00 in0.0 mm 0.00 in0.0 mm
03:20 AM 86.4°F30.2°C 61.0°F16.1°C 42% 4.1 mph S6.6 kmh S 9.0 mph14.5 kmh 29.86 in1011.2 mb 0.00 in0.0 mm 0.00 in0.0 mm 0.00 in0.0 mm
03:30 AM 82.9°F28.3°C 66.0°F18.9°C 57% 2.7 mph SE4.3 kmh SE 7.0 mph11.3 kmh 29.86 in1011.2 mb 0.13 in3.3 mm 0.78 in19.8 mm 0.02 in0.5 mm
03:40 AM 81.1°F27.3°C 66.0°F18.9°C 60% 0.5 mph SE0.8 kmh SE 3.0 mph4.8 kmh 29.86 in1011.2 mb 0.04 in1.0 mm 0.00 in0.0 mm 0.02 in0.5 mm
03:50 AM 80.8°F27.1°C 67.0°F19.4°C 63% Calm Calm 1.0 mph1.6 kmh 29.86 in1011.2 mb 0.00 in0.0 mm 0.00 in0.0 mm 0.02 in0.5 mm
04:00 AM 80.3°F26.8°C 68.0°F20.0°C 66% Calm Calm -- 29.86 in1011.2 mb 0.00 in0.0 mm 0.00 in0.0 mm 0.02 in0.5 mm
04:10 AM 80.1°F26.7°C 67.0°F19.4°C 65% Calm Calm 1.0 mph1.6 kmh 29.86 in1011.2 mb 0.00 in0.0 mm 0.00 in0.0 mm 0.02 in0.5 mm
04:20 AM 80.8°F27.1°C 67.0°F19.4°C 64% Calm Calm -- 29.86 in1011.2 mb 0.00 in0.0 mm 0.00 in0.0 mm 0.02 in0.5 mm
04:30 AM 81.1°F27.3°C 67.0°F19.4°C 62% 0.1 mph SW0.2 kmh SW 1.0 mph1.6 kmh 29.86 in1011.2 mb 0.00 in0.0 mm 0.00 in0.0 mm 0.02 in0.5 mm
04:40 AM 80.7°F27.1°C 69.0°F20.6°C 67% Calm Calm -- 29.86 in1011.2 mb 0.00 in0.0 mm 0.00 in0.0 mm 0.02 in0.5 mm
04:50 AM 80.6°F27.0°C 67.0°F19.4°C 64% Calm Calm 1.0 mph1.6 kmh 29.86 in1011.2 mb 0.00 in0.0 mm 0.00 in0.0 mm 0.02 in0.5 mm
05:00 AM 81.5°F27.5°C 67.0°F19.4°C 61% Calm Calm 1.0 mph1.6 kmh 29.86 in1011.2 mb 0.00 in0.0 mm 0.00 in0.0 mm 0.02 in0.5 mm
05:10 AM 81.4°F27.4°C 65.0°F18.3°C 58% Calm Calm 1.0 mph1.6 kmh 29.87 in1011.5 mb 0.00 in0.0 mm 0.00 in0.0 mm 0.02 in0.5 mm
05:20 AM 81.1°F27.3°C 66.0°F18.9°C 60% Calm Calm -- 29.87 in1011.5 mb 0.00 in0.0 mm 0.00 in0.0 mm 0.02 in0.5 mm
05:30 AM 81.5°F27.5°C 67.0°F19.4°C 61% Calm Calm 1.0 mph1.6 kmh 29.87 in1011.5 mb 0.00 in0.0 mm 0.00 in0.0 mm 0.02 in0.5 mm
05:40 AM 81.6°F27.6°C 65.0°F18.3°C 58% Calm Calm -- 29.87 in1011.5 mb 0.00 in0.0 mm 0.00 in0.0 mm 0.02 in0.5 mm
05:50 AM 81.7°F27.6°C 64.0°F17.8°C 56% Calm Calm 1.0 mph1.6 kmh 29.88 in1011.9 mb 0.00 in0.0 mm 0.00 in0.0 mm 0.02 in0.5 mm
06:00 AM 82.4°F28.0°C 63.0°F17.2°C 53% Calm Calm 1.0 mph1.6 kmh 29.88 in1011.9 mb 0.00 in0.0 mm 0.00 in0.0 mm 0.02 in0.5 mm
06:10 AM 83.0°F28.3°C 64.0°F17.8°C 52% Calm Calm 1.0 mph1.6 kmh 29.88 in1011.9 mb 0.00 in0.0 mm 0.00 in0.0 mm 0.02 in0.5 mm
06:20 AM 83.5°F28.6°C 65.0°F18.3°C 53% 0.3 mph N0.5 kmh N 2.0 mph3.2 kmh 29.88 in1011.9 mb 0.00 in0.0 mm 0.00 in0.0 mm 0.02 in0.5 mm
06:30 AM 83.9°F28.8°C 64.0°F17.8°C 52% 1.3 mph NNE2.1 kmh NNE 4.0 mph6.4 kmh 29.88 in1011.9 mb 0.00 in0.0 mm 0.00 in0.0 mm 0.02 in0.5 mm
06:40 AM 84.6°F29.2°C 64.0°F17.8°C 50% 3.1 mph NNE5.0 kmh NNE 6.0 mph9.7 kmh 29.88 in1011.9 mb 0.00 in0.0 mm 0.00 in0.0 mm 0.02 in0.5 mm
06:50 AM 84.9°F29.4°C 64.0°F17.8°C 49% 3.4 mph N5.5 kmh N 8.0 mph12.9 kmh 29.88 in1011.9 mb 0.00 in0.0 mm 0.00 in0.0 mm 0.02 in0.5 mm
07:00 AM 85.2°F29.6°C 63.0°F17.2°C 48% 3.2 mph NE5.1 kmh NE 6.0 mph9.7 kmh 29.88 in1011.9 mb 0.00 in0.0 mm 0.00 in0.0 mm 0.02 in0.5 mm
07:10 AM 85.4°F29.7°C 63.0°F17.2°C 48% 3.2 mph NNE5.1 kmh NNE 6.0 mph9.7 kmh 29.88 in1011.9 mb 0.00 in0.0 mm 0.00 in0.0 mm 0.02 in0.5 mm
07:20 AM 85.6°F29.8°C 63.0°F17.2°C 47% 2.8 mph NE4.5 kmh NE 6.0 mph9.7 kmh 29.89 in1012.2 mb 0.00 in0.0 mm 0.00 in0.0 mm 0.02 in0.5 mm
07:30 AM 85.8°F29.9°C 63.0°F17.2°C 47% 4.2 mph NNE6.8 kmh NNE 7.0 mph11.3 kmh 29.89 in1012.2 mb 0.00 in0.0 mm 0.00 in0.0 mm 0.02 in0.5 mm
07:40 AM 86.1°F30.1°C 63.0°F17.2°C 46% 3.5 mph N5.6 kmh N 7.0 mph11.3 kmh 29.89 in1012.2 mb 0.00 in0.0 mm 0.00 in0.0 mm 0.02 in0.5 mm
07:50 AM 86.5°F30.3°C 63.0°F17.2°C 45% 3.6 mph N5.8 kmh N 7.0 mph11.3 kmh 29.89 in1012.2 mb 0.00 in0.0 mm 0.00 in0.0 mm 0.02 in0.5 mm
08:00 AM 86.8°F30.4°C 62.0°F16.7°C 44% 3.2 mph NNE5.1 kmh NNE 6.0 mph9.7 kmh 29.88 in1011.9 mb 0.00 in0.0 mm 0.00 in0.0 mm 0.02 in0.5 mm
08:10 AM 87.2°F30.7°C 63.0°F17.2°C 44% 2.2 mph NNE3.5 kmh NNE 4.0 mph6.4 kmh 29.89 in1012.2 mb 0.00 in0.0 mm 0.00 in0.0 mm 0.02 in0.5 mm
08:20 AM 87.9°F31.1°C 63.0°F17.2°C 43% 2.7 mph NNE4.3 kmh NNE 5.0 mph8.0 kmh 29.88 in1011.9 mb 0.00 in0.0 mm 0.00 in0.0 mm 0.02 in0.5 mm
08:30 AM 89.2°F31.8°C 63.0°F17.2°C 42% 2.0 mph NNE3.2 kmh NNE 5.0 mph8.0 kmh 29.88 in1011.9 mb 0.00 in0.0 mm 0.00 in0.0 mm 0.02 in0.5 mm
08:40 AM 90.2°F32.3°C 63.0°F17.2°C 40% 1.2 mph N1.9 kmh N 4.0 mph6.4 kmh 29.89 in1012.2 mb 0.00 in0.0 mm 0.00 in0.0 mm 0.02 in0.5 mm
08:50 AM 91.3°F32.9°C 63.0°F17.2°C 39% 0.3 mph S0.5 kmh S 1.0 mph1.6 kmh 29.89 in1012.2 mb 0.00 in0.0 mm 0.00 in0.0 mm 0.02 in0.5 mm
09:00 AM 91.8°F33.2°C 62.0°F16.7°C 37% 1.5 mph S2.4 kmh S 4.0 mph6.4 kmh 29.89 in1012.2 mb 0.00 in0.0 mm 0.00 in0.0 mm 0.02 in0.5 mm
09:10 AM 92.6°F33.7°C 63.0°F17.2°C 37% 1.3 mph SE2.1 kmh SE 6.0 mph9.7 kmh 29.89 in1012.2 mb 0.00 in0.0 mm 0.00 in0.0 mm 0.02 in0.5 mm
09:20 AM 94.3°F34.6°C 63.0°F17.2°C 35% 0.9 mph SSW1.4 kmh SSW 8.0 mph12.9 kmh 29.89 in1012.2 mb 0.00 in0.0 mm 0.00 in0.0 mm 0.02 in0.5 mm
09:30 AM 94.3°F34.6°C 63.0°F17.2°C 35% 2.3 mph SW3.7 kmh SW 5.0 mph8.0 kmh 29.89 in1012.2 mb 0.00 in0.0 mm 0.00 in0.0 mm 0.02 in0.5 mm
09:40 AM 94.8°F34.9°C 62.0°F16.7°C 33% 2.5 mph SW4.0 kmh SW 6.0 mph9.7 kmh 29.89 in1012.2 mb 0.00 in0.0 mm 0.00 in0.0 mm 0.02 in0.5 mm
09:50 AM 95.4°F35.2°C 64.0°F17.8°C 35% 2.2 mph SW3.5 kmh SW 6.0 mph9.7 kmh 29.89 in1012.2 mb 0.00 in0.0 mm 0.00 in0.0 mm 0.02 in0.5 mm
10:00 AM 95.0°F35.0°C 63.0°F17.2°C 35% 3.3 mph SW5.3 kmh SW 8.0 mph12.9 kmh 29.90 in1012.5 mb 0.00 in0.0 mm 0.00 in0.0 mm 0.02 in0.5 mm
10:10 AM 94.6°F34.8°C 63.0°F17.2°C 35% 4.4 mph SSE7.1 kmh SSE 8.0 mph12.9 kmh 29.90 in1012.5 mb 0.00 in0.0 mm 0.00 in0.0 mm 0.02 in0.5 mm
10:20 AM 94.9°F34.9°C 63.0°F17.2°C 35% 3.2 mph SW5.1 kmh SW 8.0 mph12.9 kmh 29.90 in1012.5 mb 0.00 in0.0 mm 0.00 in0.0 mm 0.02 in0.5 mm
10:30 AM 95.3°F35.2°C 64.0°F17.8°C 35% 3.6 mph SW5.8 kmh SW 9.0 mph14.5 kmh 29.89 in1012.2 mb 0.00 in0.0 mm 0.00 in0.0 mm 0.02 in0.5 mm
10:40 AM 95.8°F35.4°C 63.0°F17.2°C 34% 2.6 mph S4.2 kmh S 8.0 mph12.9 kmh 29.89 in1012.2 mb 0.00 in0.0 mm 0.00 in0.0 mm 0.02 in0.5 mm
10:50 AM 95.9°F35.5°C 62.0°F16.7°C 33% 3.3 mph SW5.3 kmh SW 8.0 mph12.9 kmh 29.89 in1012.2 mb 0.00 in0.0 mm 0.00 in0.0 mm 0.02 in0.5 mm
11:00 AM 97.0°F36.1°C 63.0°F17.2°C 32% 1.8 mph S2.9 kmh S 7.0 mph11.3 kmh 29.89 in1012.2 mb 0.00 in0.0 mm 0.00 in0.0 mm 0.02 in0.5 mm
11:10 AM 96.6°F35.9°C 63.0°F17.2°C 33% 2.9 mph S4.7 kmh S 8.0 mph12.9 kmh 29.89 in1012.2 mb 0.00 in0.0 mm 0.00 in0.0 mm 0.02 in0.5 mm
11:20 AM 97.0°F36.1°C 63.0°F17.2°C 33% 3.1 mph SW5.0 kmh SW 9.0 mph14.5 kmh 29.88 in1011.9 mb 0.00 in0.0 mm 0.00 in0.0 mm 0.02 in0.5 mm
11:30 AM 96.5°F35.8°C 63.0°F17.2°C 33% 4.0 mph SE6.4 kmh SE 10.0 mph16.1 kmh 29.88 in1011.9 mb 0.00 in0.0 mm 0.00 in0.0 mm 0.02 in0.5 mm
11:40 AM 96.9°F36.1°C 63.0°F17.2°C 33% 2.9 mph SSW4.7 kmh SSW 8.0 mph12.9 kmh 29.88 in1011.9 mb 0.00 in0.0 mm 0.00 in0.0 mm 0.02 in0.5 mm
11:50 AM 98.4°F36.9°C 64.0°F17.8°C 32% 1.9 mph SSE3.1 kmh SSE 9.0 mph14.5 kmh 29.88 in1011.9 mb 0.00 in0.0 mm 0.00 in0.0 mm 0.02 in0.5 mm
12:00 PM 98.6°F37.0°C 63.0°F17.2°C 31% 2.4 mph SW3.9 kmh SW 8.0 mph12.9 kmh 29.87 in1011.5 mb 0.00 in0.0 mm 0.00 in0.0 mm 0.02 in0.5 mm
12:10 PM 99.5°F37.5°C 63.0°F17.2°C 30% 1.9 mph SSW3.1 kmh SSW 8.0 mph12.9 kmh 29.87 in1011.5 mb 0.00 in0.0 mm 0.00 in0.0 mm 0.02 in0.5 mm
12:20 PM 100.0°F37.8°C 62.0°F16.7°C 29% 1.1 mph SW1.8 kmh SW 3.0 mph4.8 kmh 29.86 in1011.2 mb 0.00 in0.0 mm 0.00 in0.0 mm 0.02 in0.5 mm
12:30 PM 100.0°F37.8°C 63.0°F17.2°C 30% 1.5 mph ESE2.4 kmh ESE 8.0 mph12.9 kmh 29.86 in1011.2 mb 0.00 in0.0 mm 0.00 in0.0 mm 0.02 in0.5 mm
12:40 PM 99.7°F37.6°C 63.0°F17.2°C 30% 2.8 mph SSW4.5 kmh SSW 9.0 mph14.5 kmh 29.85 in1010.8 mb 0.00 in0.0 mm 0.00 in0.0 mm 0.02 in0.5 mm
12:50 PM 99.3°F37.4°C 63.0°F17.2°C 30% 3.8 mph SW6.1 kmh SW 9.0 mph14.5 kmh 29.85 in1010.8 mb 0.00 in0.0 mm 0.00 in0.0 mm 0.02 in0.5 mm
01:00 PM 99.0°F37.2°C 63.0°F17.2°C 30% 3.7 mph SW6.0 kmh SW 8.0 mph12.9 kmh 29.85 in1010.8 mb 0.00 in0.0 mm 0.00 in0.0 mm 0.02 in0.5 mm
01:10 PM 99.9°F37.7°C 63.0°F17.2°C 30% 1.6 mph SW2.6 kmh SW 7.0 mph11.3 kmh 29.84 in1010.5 mb 0.00 in0.0 mm 0.00 in0.0 mm 0.02 in0.5 mm
01:20 PM 101.1°F38.4°C 62.0°F16.7°C 28% 2.3 mph SE3.7 kmh SE 5.0 mph8.0 kmh 29.84 in1010.5 mb 0.00 in0.0 mm 0.00 in0.0 mm 0.02 in0.5 mm
01:30 PM 102.2°F39.0°C 61.0°F16.1°C 26% 0.9 mph N1.4 kmh N 4.0 mph6.4 kmh 29.82 in1009.8 mb 0.00 in0.0 mm 0.00 in0.0 mm 0.02 in0.5 mm
01:40 PM 102.0°F38.9°C 61.0°F16.1°C 26% 2.4 mph SW3.9 kmh SW 11.0 mph17.7 kmh 29.82 in1009.8 mb 0.00 in0.0 mm 0.00 in0.0 mm 0.02 in0.5 mm
01:50 PM 101.0°F38.3°C 60.0°F15.6°C 26% 2.8 mph SW4.5 kmh SW 8.0 mph12.9 kmh 29.82 in1009.8 mb 0.00 in0.0 mm 0.00 in0.0 mm 0.02 in0.5 mm
02:00 PM 102.4°F39.1°C 60.0°F15.6°C 25% 1.7 mph WSW2.7 kmh WSW 11.0 mph17.7 kmh 29.81 in1009.5 mb 0.00 in0.0 mm 0.00 in0.0 mm 0.02 in0.5 mm
02:10 PM 100.5°F38.1°C 59.0°F15.0°C 25% 4.0 mph S6.4 kmh S 10.0 mph16.1 kmh 29.81 in1009.5 mb 0.00 in0.0 mm 0.00 in0.0 mm 0.02 in0.5 mm
02:20 PM 102.0°F38.9°C 59.0°F15.0°C 24% 0.9 mph SE1.4 kmh SE 6.0 mph9.7 kmh 29.80 in1009.1 mb 0.00 in0.0 mm 0.00 in0.0 mm 0.02 in0.5 mm
02:30 PM 102.5°F39.2°C 59.0°F15.0°C 24% 2.2 mph SW3.5 kmh SW 8.0 mph12.9 kmh 29.79 in1008.8 mb 0.00 in0.0 mm 0.00 in0.0 mm 0.02 in0.5 mm
02:40 PM 103.2°F39.6°C 59.0°F15.0°C 23% 1.7 mph N2.7 kmh N 8.0 mph12.9 kmh 29.78 in1008.5 mb 0.00 in0.0 mm 0.00 in0.0 mm 0.02 in0.5 mm
02:50 PM 103.7°F39.8°C 59.0°F15.0°C 23% 0.9 mph SW1.4 kmh SW 5.0 mph8.0 kmh 29.78 in1008.5 mb 0.00 in0.0 mm 0.00 in0.0 mm 0.02 in0.5 mm
03:00 PM 103.1°F39.5°C 59.0°F15.0°C 23% 3.5 mph SSW5.6 kmh SSW 10.0 mph16.1 kmh 29.77 in1008.1 mb 0.00 in0.0 mm 0.00 in0.0 mm 0.02 in0.5 mm
03:10 PM 102.8°F39.3°C 58.0°F14.4°C 23% 3.2 mph SW5.1 kmh SW 9.0 mph14.5 kmh 29.77 in1008.1 mb 0.00 in0.0 mm 0.00 in0.0 mm 0.02 in0.5 mm
03:20 PM 103.7°F39.8°C 59.0°F15.0°C 23% 3.2 mph SW5.1 kmh SW 11.0 mph17.7 kmh 29.77 in1008.1 mb 0.00 in0.0 mm 0.00 in0.0 mm 0.02 in0.5 mm
03:30 PM 103.1°F39.5°C 57.0°F13.9°C 22% 1.8 mph SSW2.9 kmh SSW 9.0 mph14.5 kmh 29.77 in1008.1 mb 0.00 in0.0 mm 0.00 in0.0 mm 0.02 in0.5 mm
03:40 PM 103.3°F39.6°C 58.0°F14.4°C 22% 1.6 mph SW2.6 kmh SW 6.0 mph9.7 kmh 29.76 in1007.8 mb 0.00 in0.0 mm 0.00 in0.0 mm 0.02 in0.5 mm
03:50 PM 103.6°F39.8°C 58.0°F14.4°C 22% 5.0 mph SSE8.0 kmh SSE 12.0 mph19.3 kmh 29.76 in1007.8 mb 0.00 in0.0 mm 0.00 in0.0 mm 0.02 in0.5 mm
04:00 PM 103.5°F39.7°C 57.0°F13.9°C 21% 3.2 mph S5.1 kmh S 11.0 mph17.7 kmh 29.76 in1007.8 mb 0.00 in0.0 mm 0.00 in0.0 mm 0.02 in0.5 mm
04:10 PM 102.7°F39.3°C 57.0°F13.9°C 22% 4.1 mph S6.6 kmh S 10.0 mph16.1 kmh 29.76 in1007.8 mb 0.00 in0.0 mm 0.00 in0.0 mm 0.02 in0.5 mm
04:20 PM 102.6°F39.2°C 57.0°F13.9°C 22% 3.1 mph SW5.0 kmh SW 9.0 mph14.5 kmh 29.76 in1007.8 mb 0.00 in0.0 mm 0.00 in0.0 mm 0.02 in0.5 mm
04:30 PM 101.5°F38.6°C 57.0°F13.9°C 23% 2.6 mph SSW4.2 kmh SSW 8.0 mph12.9 kmh 29.75 in1007.5 mb 0.00 in0.0 mm 0.00 in0.0 mm 0.02 in0.5 mm
04:40 PM 102.6°F39.2°C 58.0°F14.4°C 23% 2.9 mph S4.7 kmh S 10.0 mph16.1 kmh 29.75 in1007.5 mb 0.00 in0.0 mm 0.00 in0.0 mm 0.02 in0.5 mm
04:50 PM 103.0°F39.4°C 57.0°F13.9°C 22% 2.3 mph SW3.7 kmh SW 10.0 mph16.1 kmh 29.75 in1007.5 mb 0.00 in0.0 mm 0.00 in0.0 mm 0.02 in0.5 mm
05:00 PM 102.2°F39.0°C 57.0°F13.9°C 22% 3.4 mph SSW5.5 kmh SSW 14.0 mph22.5 kmh 29.75 in1007.5 mb 0.00 in0.0 mm 0.00 in0.0 mm 0.02 in0.5 mm
05:10 PM 102.3°F39.1°C 57.0°F13.9°C 22% 2.1 mph SSW3.4 kmh SSW 5.0 mph8.0 kmh 29.75 in1007.5 mb 0.00 in0.0 mm 0.00 in0.0 mm 0.02 in0.5 mm
05:20 PM 102.2°F39.0°C 58.0°F14.4°C 23% 4.4 mph WSW7.1 kmh WSW 14.0 mph22.5 kmh 29.74 in1007.1 mb 0.00 in0.0 mm 0.00 in0.0 mm 0.02 in0.5 mm
05:30 PM 102.4°F39.1°C 57.0°F13.9°C 22% 4.4 mph SW7.1 kmh SW 12.0 mph19.3 kmh 29.75 in1007.5 mb 0.00 in0.0 mm 0.00 in0.0 mm 0.02 in0.5 mm
05:40 PM 101.8°F38.8°C 58.0°F14.4°C 23% 3.4 mph SW5.5 kmh SW 11.0 mph17.7 kmh 29.75 in1007.5 mb 0.00 in0.0 mm 0.00 in0.0 mm 0.02 in0.5 mm
05:50 PM 101.9°F38.8°C 58.0°F14.4°C 23% 3.3 mph SW5.3 kmh SW 8.0 mph12.9 kmh 29.75 in1007.5 mb 0.00 in0.0 mm 0.00 in0.0 mm 0.02 in0.5 mm
06:00 PM 101.7°F38.7°C 62.0°F16.7°C 27% 4.9 mph SE7.9 kmh SE 14.0 mph22.5 kmh 29.76 in1007.8 mb 0.00 in0.0 mm 0.00 in0.0 mm 0.02 in0.5 mm
06:10 PM 97.2°F36.2°C 62.0°F16.7°C 31% 9.9 mph ESE15.9 kmh ESE 21.0 mph33.8 kmh 29.77 in1008.1 mb 0.00 in0.0 mm 0.00 in0.0 mm 0.02 in0.5 mm
06:20 PM 95.3°F35.2°C 61.0°F16.1°C 32% 8.1 mph SSE13.0 kmh SSE 16.0 mph25.7 kmh 29.78 in1008.5 mb 0.00 in0.0 mm 0.00 in0.0 mm 0.02 in0.5 mm
06:30 PM 93.7°F34.3°C 62.0°F16.7°C 35% 7.0 mph SE11.3 kmh SE 15.0 mph24.1 kmh 29.78 in1008.5 mb 0.00 in0.0 mm 0.00 in0.0 mm 0.02 in0.5 mm
06:40 PM 93.4°F34.1°C 63.0°F17.2°C 36% 5.0 mph SSE8.0 kmh SSE 11.0 mph17.7 kmh 29.79 in1008.8 mb 0.00 in0.0 mm 0.00 in0.0 mm 0.02 in0.5 mm
06:50 PM 92.3°F33.5°C 62.0°F16.7°C 37% 5.2 mph ESE8.4 kmh ESE 12.0 mph19.3 kmh 29.78 in1008.5 mb 0.00 in0.0 mm 0.00 in0.0 mm 0.02 in0.5 mm
07:00 PM 91.4°F33.0°C 62.0°F16.7°C 38% 4.4 mph ESE7.1 kmh ESE 10.0 mph16.1 kmh 29.79 in1008.8 mb 0.00 in0.0 mm 0.00 in0.0 mm 0.02 in0.5 mm
07:10 PM 90.8°F32.7°C 63.0°F17.2°C 39% 3.0 mph S4.8 kmh S 10.0 mph16.1 kmh 29.80 in1009.1 mb 0.00 in0.0 mm 0.00 in0.0 mm 0.02 in0.5 mm
07:20 PM 90.5°F32.5°C 62.0°F16.7°C 38% 2.3 mph SSE3.7 kmh SSE 6.0 mph9.7 kmh 29.81 in1009.5 mb 0.00 in0.0 mm 0.00 in0.0 mm 0.02 in0.5 mm
07:30 PM 90.5°F32.5°C 62.0°F16.7°C 39% 1.2 mph SE1.9 kmh SE 5.0 mph8.0 kmh 29.82 in1009.8 mb 0.00 in0.0 mm 0.00 in0.0 mm 0.02 in0.5 mm
07:40 PM 90.2°F32.3°C 63.0°F17.2°C 40% 1.0 mph N1.6 kmh N 3.0 mph4.8 kmh 29.83 in1010.2 mb 0.00 in0.0 mm 0.00 in0.0 mm 0.02 in0.5 mm
07:50 PM 90.2°F32.3°C 64.0°F17.8°C 42% 2.0 mph NNE3.2 kmh NNE 5.0 mph8.0 kmh 29.84 in1010.5 mb 0.00 in0.0 mm 0.00 in0.0 mm 0.02 in0.5 mm
08:00 PM 89.1°F31.7°C 65.0°F18.3°C 45% 3.7 mph N6.0 kmh N 10.0 mph16.1 kmh 29.84 in1010.5 mb 0.00 in0.0 mm 0.00 in0.0 mm 0.02 in0.5 mm
08:10 PM 86.6°F30.3°C 65.0°F18.3°C 49% 5.4 mph NNE8.7 kmh NNE 13.0 mph20.9 kmh 29.85 in1010.8 mb 0.00 in0.0 mm 0.00 in0.0 mm 0.02 in0.5 mm
08:20 PM 85.4°F29.7°C 65.0°F18.3°C 50% 7.1 mph NNW11.4 kmh NNW 16.0 mph25.7 kmh 29.85 in1010.8 mb 0.00 in0.0 mm 0.00 in0.0 mm 0.02 in0.5 mm
08:30 PM 84.6°F29.2°C 64.0°F17.8°C 50% 8.6 mph WNW13.8 kmh WNW 18.0 mph29.0 kmh 29.85 in1010.8 mb 0.00 in0.0 mm 0.00 in0.0 mm 0.02 in0.5 mm
08:40 PM 85.1°F29.5°C 64.0°F17.8°C 49% 9.6 mph N15.4 kmh N 17.0 mph27.4 kmh 29.86 in1011.2 mb 0.00 in0.0 mm 0.00 in0.0 mm 0.02 in0.5 mm
08:50 PM 85.2°F29.6°C 63.0°F17.2°C 48% 7.2 mph NNW11.6 kmh NNW 16.0 mph25.7 kmh 29.87 in1011.5 mb 0.00 in0.0 mm 0.00 in0.0 mm 0.02 in0.5 mm
09:00 PM 84.8°F29.3°C 65.0°F18.3°C 52% 2.7 mph NW4.3 kmh NW 8.0 mph12.9 kmh 29.87 in1011.5 mb 0.00 in0.0 mm 0.00 in0.0 mm 0.02 in0.5 mm
09:10 PM 83.8°F28.8°C 66.0°F18.9°C 56% 2.7 mph NNE4.3 kmh NNE 8.0 mph12.9 kmh 29.88 in1011.9 mb 0.00 in0.0 mm 0.00 in0.0 mm 0.02 in0.5 mm
09:20 PM 82.6°F28.1°C 67.0°F19.4°C 60% 2.7 mph NNW4.3 kmh NNW 7.0 mph11.3 kmh 29.88 in1011.9 mb 0.00 in0.0 mm 0.00 in0.0 mm 0.02 in0.5 mm
09:30 PM 81.7°F27.6°C 68.0°F20.0°C 63% 2.0 mph N3.2 kmh N 5.0 mph8.0 kmh 29.89 in1012.2 mb 0.00 in0.0 mm 0.00 in0.0 mm 0.02 in0.5 mm
09:40 PM 81.1°F27.3°C 68.0°F20.0°C 65% 0.7 mph NNE1.1 kmh NNE 2.0 mph3.2 kmh 29.89 in1012.2 mb 0.00 in0.0 mm 0.00 in0.0 mm 0.03 in0.8 mm
09:50 PM 81.0°F27.2°C 67.0°F19.4°C 63% 1.8 mph N2.9 kmh N 5.0 mph8.0 kmh 29.89 in1012.2 mb 0.00 in0.0 mm 0.00 in0.0 mm 0.03 in0.8 mm
10:00 PM 81.1°F27.3°C 67.0°F19.4°C 62% 2.8 mph N4.5 kmh N 6.0 mph9.7 kmh 29.89 in1012.2 mb 0.00 in0.0 mm 0.00 in0.0 mm 0.03 in0.8 mm
10:10 PM 81.5°F27.5°C 67.0°F19.4°C 61% 2.7 mph SE4.3 kmh SE 9.0 mph14.5 kmh 29.91 in1012.9 mb 0.00 in0.0 mm 0.00 in0.0 mm 0.03 in0.8 mm
10:20 PM 81.2°F27.3°C 67.0°F19.4°C 62% 3.2 mph SE5.1 kmh SE 6.0 mph9.7 kmh 29.93 in1013.5 mb 0.00 in0.0 mm 0.00 in0.0 mm 0.03 in0.8 mm
10:30 PM 79.2°F26.2°C 69.0°F20.6°C 70% 4.3 mph SE6.9 kmh SE 11.0 mph17.7 kmh 29.94 in1013.9 mb 0.21 in5.3 mm 1.26 in32.0 mm 0.06 in1.5 mm
10:40 PM 76.5°F24.7°C 69.0°F20.6°C 78% 5.5 mph SSE8.9 kmh SSE 16.0 mph25.7 kmh 29.95 in1014.2 mb 0.14 in3.6 mm 0.00 in0.0 mm 0.08 in2.0 mm
10:50 PM 75.1°F23.9°C 69.0°F20.6°C 80% 3.6 mph N5.8 kmh N 13.0 mph20.9 kmh 29.95 in1014.2 mb 0.10 in2.5 mm 0.00 in0.0 mm 0.10 in2.5 mm
11:00 PM 73.6°F23.1°C 69.0°F20.6°C 84% 3.3 mph WSW5.3 kmh WSW 9.0 mph14.5 kmh 29.95 in1014.2 mb 0.35 in8.9 mm 0.30 in7.6 mm 0.17 in4.3 mm
11:10 PM 73.5°F23.1°C 68.0°F20.0°C 83% 3.5 mph N5.6 kmh N 10.0 mph16.1 kmh 29.95 in1014.2 mb 0.47 in11.9 mm 0.72 in18.3 mm 0.20 in5.1 mm
11:20 PM 73.9°F23.3°C 69.0°F20.6°C 83% 3.5 mph E5.6 kmh E 9.0 mph14.5 kmh 29.96 in1014.6 mb 0.10 in2.5 mm 0.00 in0.0 mm 0.22 in5.6 mm
11:30 PM 74.2°F23.4°C 68.0°F20.0°C 82% 3.3 mph NNW5.3 kmh NNW 8.0 mph12.9 kmh 29.96 in1014.6 mb 0.05 in1.3 mm 0.00 in0.0 mm 0.23 in5.8 mm
11:40 PM 74.4°F23.6°C 69.0°F20.6°C 82% 2.8 mph ESE4.5 kmh ESE 10.0 mph16.1 kmh 29.96 in1014.6 mb 0.06 in1.5 mm 0.06 in1.5 mm 0.24 in6.1 mm
11:50 PM 74.8°F23.8°C 69.0°F20.6°C 81% 3.3 mph NNE5.3 kmh NNE 9.0 mph14.5 kmh 29.96 in1014.6 mb 0.09 in2.3 mm 0.18 in4.6 mm 0.26 in6.6 mm